Terminal Aerodrome Forecast
Issued by NWS

Home | Current Version | Previous Version | Text Only | Print | Product List | Glossary On
Versions: 1 2 3 4 5 6 7 8 9 10 11 12 13 14 15 16 17 18 19 20 21 22 23
000
FTUS43 KGRR 132300 RRA
TAFBTL
TAF
KBTL 132340Z 1400/1424 27006KT P6SM BKN060
     FM141500 27009KT P6SM VCSH BKN040
     FM142000 26011G20KT P6SM VCTS BKN040CB=

USA.gov is the U.S. government's official web portal to all federal, state and local government web resources and services.